Time;durP1;ratioP1;P1;durP2;ratioP2;P2;SDS_P1;SDS_P2;PMS_P1;PMS_P2;Temp;Humidity;BMP_temperature;BMP_pressure;BME280_temperature;BME280_humidity;BME280_pressure;Samples;Min_cycle;Max_cycle;Signal;HPM_P1;HPM_P2
2021/11/27 00:03:00;;;;;;;0.52;0.10;;;4.40;99.90;;;;;;20990243;28;20064;-47
2021/11/27 00:13:06;;;;;;;1.10;0.20;;;4.20;99.90;;;;;;20983371;28;20032;-46
2021/11/27 00:23:08;;;;;;;1.40;0.30;;;4.30;99.90;;;;;;20988137;28;20512;-46
2021/11/27 00:33:09;;;;;;;0.35;0.10;;;4.20;99.90;;;;;;20990252;28;20047;-46
2021/11/27 00:43:11;;;;;;;0.17;0.10;;;4.10;99.90;;;;;;20984876;28;20247;-46
2021/11/27 00:53:12;;;;;;;0.55;0.20;;;4.10;99.90;;;;;;20983802;28;20500;-46
2021/11/27 01:03:17;;;;;;;0.30;0.17;;;4.20;99.90;;;;;;20977482;28;20047;-46
2021/11/27 01:13:20;;;;;;;0.73;0.20;;;4.20;99.90;;;;;;20965401;28;20522;-46
2021/11/27 01:23:22;;;;;;;0.20;0.03;;;4.30;99.90;;;;;;20966422;28;20051;-46
2021/11/27 01:33:26;;;;;;;1.85;0.30;;;4.20;99.90;;;;;;20976181;28;20049;-46
2021/11/27 01:43:28;;;;;;;0.17;0.00;;;4.20;99.90;;;;;;20981146;28;20033;-45
2021/11/27 01:53:33;;;;;;;7.97;0.50;;;4.10;99.90;;;;;;20977359;28;20714;-45
2021/11/27 02:03:34;;;;;;;0.10;0.00;;;4.00;99.90;;;;;;20983934;28;20036;-45
2021/11/27 02:13:35;;;;;;;0.30;0.10;;;4.00;99.90;;;;;;20995857;28;21509;-45
2021/11/27 02:23:37;;;;;;;0.00;0.00;;;3.90;99.90;;;;;;20996698;28;20047;-45
2021/11/27 02:33:39;;;;;;;0.25;0.10;;;4.00;99.90;;;;;;20993984;28;20773;-45
2021/11/27 02:43:40;;;;;;;0.00;0.00;;;4.00;99.90;;;;;;20974789;28;20500;-45
2021/11/27 02:53:41;;;;;;;0.50;0.10;;;4.00;99.90;;;;;;20987094;28;20036;-45
2021/11/27 03:03:43;;;;;;;2.80;0.10;;;4.00;99.90;;;;;;20981344;28;20040;-46
2021/11/27 03:13:44;;;;;;;0.85;0.13;;;3.90;99.90;;;;;;20989607;28;20028;-47
2021/11/27 03:23:46;;;;;;;0.80;0.20;;;3.90;99.90;;;;;;20990857;28;20874;-46
2021/11/27 03:33:47;;;;;;;0.30;0.10;;;3.90;99.90;;;;;;20986497;28;20040;-47
2021/11/27 03:43:48;;;;;;;1.02;0.00;;;3.80;99.90;;;;;;20989148;28;20043;-46
2021/11/27 03:53:49;;;;;;;0.10;0.03;;;3.70;99.90;;;;;;20984123;28;20047;-46
2021/11/27 04:03:54;;;;;;;0.43;0.10;;;3.70;99.90;;;;;;20985433;28;20028;-46
2021/11/27 04:13:55;;;;;;;0.00;0.00;;;3.80;99.90;;;;;;20987474;28;20440;-46
2021/11/27 04:23:57;;;;;;;0.40;0.10;;;3.70;99.90;;;;;;20990569;28;20051;-46
2021/11/27 04:34:00;;;;;;;0.00;0.00;;;3.70;99.90;;;;;;20986916;28;20396;-46
2021/11/27 04:44:01;;;;;;;0.30;0.10;;;3.70;99.90;;;;;;20988281;28;20051;-45
2021/11/27 04:54:02;;;;;;;0.63;0.20;;;3.80;99.90;;;;;;20982370;28;20050;-46
2021/11/27 05:04:04;;;;;;;0.05;0.00;;;3.80;99.90;;;;;;20985869;28;20455;-45
2021/11/27 05:14:05;;;;;;;0.25;0.15;;;3.80;99.90;;;;;;20986932;28;20054;-45
2021/11/27 05:24:07;;;;;;;0.70;0.20;;;3.70;99.90;;;;;;20966615;28;20415;-45
2021/11/27 05:44:09;;;;;;;0.60;0.20;;;3.80;99.90;;;;;;20980852;28;20499;-45
2021/11/27 05:54:10;;;;;;;0.88;0.10;;;3.80;99.90;;;;;;20985078;28;20495;-45
2021/11/27 06:04:11;;;;;;;0.63;0.20;;;3.80;99.90;;;;;;20986293;28;20037;-45
2021/11/27 06:14:13;;;;;;;0.82;0.30;;;3.80;99.90;;;;;;20977699;28;20900;-45
2021/11/27 06:24:15;;;;;;;0.80;0.30;;;3.90;99.90;;;;;;20986397;28;20117;-46
2021/11/27 06:34:17;;;;;;;0.93;0.40;;;3.90;99.90;;;;;;20987027;28;20723;-46
2021/11/27 06:44:18;;;;;;;0.47;0.20;;;3.90;99.90;;;;;;20988313;28;20102;-46
2021/11/27 06:54:19;;;;;;;3.55;0.45;;;3.80;99.90;;;;;;20995236;28;20078;-46
2021/11/27 07:04:22;;;;;;;0.40;0.20;;;3.80;99.90;;;;;;21003330;28;20032;-47
2021/11/27 07:14:30;;;;;;;3.35;0.30;;;3.70;99.90;;;;;;21000273;28;20132;-46
2021/11/27 07:24:31;;;;;;;1.58;0.40;;;3.70;99.90;;;;;;20999702;28;20444;-46
2021/11/27 07:34:32;;;;;;;3.72;0.47;;;3.60;99.90;;;;;;21000231;28;20044;-46
2021/11/27 07:44:34;;;;;;;3.60;0.50;;;3.60;99.90;;;;;;20990980;28;20035;-46
2021/11/27 07:54:36;;;;;;;3.17;0.98;;;3.70;99.90;;;;;;20993688;28;20475;-46
2021/11/27 08:04:37;;;;;;;1.23;0.47;;;3.60;99.90;;;;;;20991539;28;20043;-46
2021/11/27 08:14:38;;;;;;;1.65;0.28;;;3.60;99.90;;;;;;20991302;28;20043;-47
2021/11/27 08:24:40;;;;;;;0.30;0.20;;;3.60;99.90;;;;;;20990874;28;20039;-47
2021/11/27 08:34:41;;;;;;;0.85;0.10;;;3.60;99.90;;;;;;20992845;28;20052;-47
2021/11/27 08:44:44;;;;;;;0.30;0.15;;;3.50;99.90;;;;;;20999393;28;20867;-46
2021/11/27 08:54:45;;;;;;;1.95;0.70;;;3.50;99.90;;;;;;20993072;28;20048;-46
2021/11/27 09:04:47;;;;;;;0.80;0.25;;;3.60;99.90;;;;;;20996628;28;20068;-46
2021/11/27 09:14:50;;;;;;;0.17;0.00;;;3.40;99.90;;;;;;21002590;28;20435;-47
2021/11/27 09:24:51;;;;;;;2.78;0.65;;;3.40;99.90;;;;;;20987963;28;20111;-47
2021/11/27 09:34:55;;;;;;;2.08;1.10;;;3.20;99.90;;;;;;21009653;28;20068;-47
2021/11/27 09:44:56;;;;;;;3.15;1.08;;;3.20;99.90;;;;;;20996035;28;20032;-47
2021/11/27 09:54:58;;;;;;;6.60;0.98;;;3.20;99.90;;;;;;21028062;28;20048;-46
2021/11/27 10:05:00;;;;;;;3.28;1.33;;;3.30;99.90;;;;;;21027308;28;20063;-47
2021/11/27 10:15:03;;;;;;;4.68;1.48;;;3.50;99.90;;;;;;21033700;28;20632;-45
2021/11/27 10:25:32;;;;;;;5.47;2.13;;;3.60;99.90;;;;;;21002989;28;20032;-45
2021/11/27 10:35:33;;;;;;;9.00;2.45;;;3.80;99.90;;;;;;20977166;28;20992;-45
2021/11/27 10:45:37;;;;;;;7.10;2.15;;;4.00;99.90;;;;;;20967691;28;20041;-45
2021/11/27 10:55:40;;;;;;;12.05;3.78;;;4.00;99.90;;;;;;20994677;28;20036;-45
2021/11/27 11:05:41;;;;;;;5.25;2.03;;;4.00;99.90;;;;;;20983234;28;20052;-45
2021/11/27 11:15:45;;;;;;;8.05;1.88;;;4.20;99.90;;;;;;20958700;28;20634;-44
2021/11/27 11:26:09;;;;;;;5.65;1.40;;;4.20;99.90;;;;;;20981438;28;20044;-45
2021/11/27 11:36:12;;;;;;;3.75;1.50;;;4.30;99.90;;;;;;20968065;28;21550;-45
2021/11/27 11:46:14;;;;;;;7.38;0.80;;;4.20;99.90;;;;;;20994612;28;20159;-45
2021/11/27 11:56:19;;;;;;;7.38;1.10;;;4.30;99.90;;;;;;20990941;28;20055;-45
2021/11/27 12:06:27;;;;;;;2.40;1.20;;;4.30;99.90;;;;;;20973573;28;20050;-45
2021/11/27 12:16:28;;;;;;;2.50;0.80;;;4.30;99.90;;;;;;20989378;28;20071;-44
2021/11/27 12:26:29;;;;;;;7.57;1.38;;;4.20;99.90;;;;;;20982022;28;20059;-45
2021/11/27 12:36:32;;;;;;;11.38;1.60;;;4.10;99.90;;;;;;20988435;28;20511;-45
2021/11/27 12:46:33;;;;;;;5.07;1.17;;;3.90;99.90;;;;;;20959737;28;20392;-45
2021/11/27 12:56:43;;;;;;;3.35;1.02;;;3.60;99.90;;;;;;20979553;28;20055;-45
2021/11/27 13:06:44;;;;;;;10.70;1.17;;;3.50;99.90;;;;;;20937020;28;20033;-45
2021/11/27 13:16:45;;;;;;;3.97;0.98;;;3.60;99.90;;;;;;20943941;28;20063;-45
2021/11/27 13:26:46;;;;;;;2.80;1.00;;;3.50;99.90;;;;;;20971593;28;20036;-44
2021/11/27 13:36:50;;;;;;;4.07;0.88;;;3.60;99.90;;;;;;20941325;28;20124;-44
2021/11/27 13:46:53;;;;;;;2.67;0.70;;;3.60;99.90;;;;;;20967525;28;20032;-44
2021/11/27 13:56:56;;;;;;;7.63;0.88;;;3.60;99.90;;;;;;20975583;28;20047;-44
2021/11/27 14:07:08;;;;;;;5.18;1.02;;;3.70;99.90;;;;;;20934210;28;20040;-45
2021/11/27 14:17:10;;;;;;;2.35;0.93;;;3.70;99.90;;;;;;20964081;28;20040;-45
2021/11/27 14:27:11;;;;;;;7.47;0.93;;;3.70;99.90;;;;;;20935653;28;21460;-45
2021/11/27 14:37:15;;;;;;;3.03;0.85;;;3.80;99.90;;;;;;20979498;28;20040;-45
2021/11/27 14:47:16;;;;;;;10.95;1.13;;;3.70;99.90;;;;;;20982228;28;20048;-45
2021/11/27 14:57:26;;;;;;;7.60;0.85;;;3.80;99.90;;;;;;20835350;28;20041;-45
2021/11/27 15:07:31;;;;;;;1.85;0.90;;;3.80;99.90;;;;;;20814506;28;20057;-44
2021/11/27 15:17:32;;;;;;;2.30;1.13;;;3.80;99.90;;;;;;20838080;28;20151;-45
2021/11/27 15:27:34;;;;;;;5.43;0.68;;;3.70;99.90;;;;;;20842939;28;20898;-45
2021/11/27 15:37:35;;;;;;;2.20;0.95;;;3.60;99.90;;;;;;20838859;28;20037;-45
2021/11/27 15:47:37;;;;;;;1.90;0.40;;;3.60;99.90;;;;;;20844834;28;20129;-45
2021/11/27 15:57:38;;;;;;;2.50;0.68;;;3.60;99.90;;;;;;20984017;28;20044;-44
2021/11/27 16:07:39;;;;;;;1.10;0.60;;;3.50;99.90;;;;;;21004617;28;20032;-45
2021/11/27 16:17:41;;;;;;;2.90;0.73;;;3.50;99.90;;;;;;21005235;28;20049;-45
2021/11/27 16:27:42;;;;;;;1.70;0.82;;;3.50;99.90;;;;;;21008609;28;20036;-45
2021/11/27 16:37:43;;;;;;;1.73;0.75;;;3.50;99.90;;;;;;21013658;28;20050;-45
2021/11/27 16:47:45;;;;;;;2.45;0.98;;;3.50;99.90;;;;;;21015362;28;20036;-44
2021/11/27 16:57:49;;;;;;;2.20;0.50;;;3.60;99.90;;;;;;21031780;28;20797;-44
2021/11/27 17:07:50;;;;;;;1.25;0.63;;;3.60;99.90;;;;;;21013263;28;20033;-44
2021/11/27 17:17:51;;;;;;;3.50;0.95;;;3.60;99.90;;;;;;20997197;28;20040;-44
2021/11/27 17:27:52;;;;;;;9.73;0.90;;;3.50;99.90;;;;;;20998576;28;20033;-44
2021/11/27 17:37:53;;;;;;;3.88;1.23;;;3.60;99.90;;;;;;21000326;28;20039;-44
2021/11/27 17:47:54;;;;;;;5.88;2.13;;;3.70;99.90;;;;;;21006036;28;20047;-44
2021/11/27 17:57:56;;;;;;;2.75;1.40;;;3.70;99.90;;;;;;21003947;28;20058;-44
2021/11/27 18:07:58;;;;;;;4.60;1.73;;;3.70;99.90;;;;;;20995147;28;20037;-44
2021/11/27 18:18:01;;;;;;;3.88;1.40;;;3.60;99.90;;;;;;20995413;28;20045;-44
2021/11/27 18:28:02;;;;;;;5.53;1.75;;;3.70;99.90;;;;;;20987976;28;20032;-44
2021/11/27 18:38:03;;;;;;;6.22;2.30;;;3.70;99.90;;;;;;20994685;28;20075;-44
2021/11/27 18:48:05;;;;;;;6.47;2.30;;;3.70;99.90;;;;;;21048194;28;20096;-45
2021/11/27 18:58:06;;;;;;;6.78;2.35;;;3.70;99.90;;;;;;21025723;28;20075;-44
2021/11/27 19:08:08;;;;;;;6.43;2.55;;;3.80;99.90;;;;;;21011954;28;20035;-45
2021/11/27 19:18:09;;;;;;;7.15;2.70;;;3.70;99.90;;;;;;21026492;28;20036;-45
2021/11/27 19:28:10;;;;;;;7.90;2.75;;;3.70;99.90;;;;;;21021688;28;20462;-44
2021/11/27 19:38:12;;;;;;;8.30;3.35;;;3.80;99.90;;;;;;21022474;28;20051;-44
2021/11/27 19:48:14;;;;;;;9.68;3.47;;;3.80;99.90;;;;;;21019526;28;20518;-44
2021/11/27 19:58:15;;;;;;;12.38;3.85;;;3.80;99.90;;;;;;21016594;28;20404;-46
2021/11/27 20:08:19;;;;;;;9.23;3.70;;;3.80;99.90;;;;;;21021167;28;20043;-44
2021/11/27 20:18:21;;;;;;;14.48;4.97;;;3.90;99.90;;;;;;21018457;28;20046;-44
2021/11/27 20:28:22;;;;;;;14.30;4.78;;;3.90;99.90;;;;;;21019999;28;20044;-44
2021/11/27 20:38:25;;;;;;;11.30;3.83;;;3.80;99.90;;;;;;21023011;28;20036;-45
2021/11/27 20:48:28;;;;;;;14.80;5.60;;;3.80;99.90;;;;;;21020066;28;20043;-45
2021/11/27 20:58:30;;;;;;;14.27;3.80;;;3.80;99.90;;;;;;21018120;28;20135;-45
2021/11/27 21:08:31;;;;;;;18.33;4.78;;;3.80;99.90;;;;;;21019532;28;20036;-45
2021/11/27 21:18:35;;;;;;;22.00;5.30;;;3.80;99.90;;;;;;21015983;28;20051;-44
2021/11/27 21:28:37;;;;;;;17.65;4.38;;;3.90;99.90;;;;;;21018862;28;20033;-44
2021/11/27 21:38:38;;;;;;;12.35;3.80;;;3.90;99.90;;;;;;21015182;28;20040;-44
2021/11/27 21:48:40;;;;;;;13.60;4.38;;;3.90;99.90;;;;;;21001610;28;20032;-44
2021/11/27 21:58:42;;;;;;;11.93;4.75;;;3.90;99.90;;;;;;21003202;28;20047;-44
2021/11/27 22:08:43;;;;;;;17.25;4.38;;;3.90;99.90;;;;;;20990233;28;20520;-44
2021/11/27 22:18:44;;;;;;;13.45;5.03;;;4.00;99.90;;;;;;20988109;28;20043;-44
2021/11/27 22:28:45;;;;;;;17.40;4.43;;;4.00;99.90;;;;;;21005147;28;20400;-44
2021/11/27 22:38:47;;;;;;;9.98;4.00;;;4.10;99.90;;;;;;21005497;28;20048;-44
2021/11/27 22:48:49;;;;;;;15.43;4.55;;;4.10;99.90;;;;;;21003669;28;20411;-44
2021/11/27 22:58:50;;;;;;;10.93;4.35;;;4.10;99.90;;;;;;21005381;28;20048;-44
2021/11/27 23:08:51;;;;;;;17.05;4.80;;;4.10;99.90;;;;;;20997140;28;20036;-44
2021/11/27 23:18:59;;;;;;;15.52;4.40;;;4.10;99.90;;;;;;20998114;28;20039;-44
2021/11/27 23:29:03;;;;;;;15.15;5.22;;;4.10;99.90;;;;;;20991735;28;20036;-44
2021/11/27 23:39:06;;;;;;;18.00;5.40;;;4.00;99.90;;;;;;20992358;28;20664;-44
2021/11/27 23:49:08;;;;;;;18.02;5.00;;;4.10;99.90;;;;;;20992144;28;20059;-44
2021/11/27 23:59:14;;;;;;;11.50;4.07;;;4.10;99.90;;;;;;20995870;28;20411;-44
